This is the latest recevied weather packets stored in our database for station/object AG1T-20. If no packets are shown the sender has not sent any weather packets the latest 10 day(s).
| Time | Temp. | Humidity | Pressure | Rain* | Wind** | Luminosity | Snow |
|---|---|---|---|---|---|---|---|
| 1787819405 | 17.78° C | 56% | 1022.4 hPa | 0 mm | - | 0 W/m² | - |
| 1787818804 | 18.33° C | 56% | 1022.4 hPa | 0 mm | - | 0 W/m² | - |
| 1787818205 | 18.33° C | 53% | 1022.4 hPa | 0 mm | - | 0 W/m² | - |
| 1787817605 | 19.44° C | 50% | 1022.4 hPa | 0 mm | - | 0 W/m² | - |
| 1787817005 | 20° C | 47% | 1022.4 hPa | 0 mm | - | 0 W/m² | - |
| 1787816404 | 21.11° C | 43% | 1022.4 hPa | 0 mm | - | 0 W/m² | - |
| 1787815804 | 19.44° C | 51% | 1022.4 hPa | 0 mm | - | 0 W/m² | - |
| 1787815205 | 18.89° C | 53% | 1022.4 hPa | 0 mm | - | 0 W/m² | - |
| 1787814605 | 18.89° C | 53% | 1022.4 hPa | 0 mm | - | 0 W/m² | - |
| 1787814005 | 20.56° C | 47% | 1022.4 hPa | 0 mm | - | 0 W/m² | - |
| 1787813405 | 20.56° C | 47% | 1022.3 hPa | 0 mm | - | 0 W/m² | - |
| 1787812804 | 19.44° C | 49% | 1022.3 hPa | 0 mm | - | 0 W/m² | - |
| 1787812204 | 20° C | 49% | 1022.3 hPa | 0 mm | - | 0 W/m² | - |
| 1787811605 | 21.11° C | 44% | 1022.3 hPa | 0 mm | - | 0 W/m² | - |
| 1787811004 | 21.67° C | 42% | 1022.3 hPa | 0 mm | - | 0 W/m² | - |
| 1787810404 | 22.78° C | 39% | 1022.3 hPa | 0 mm | - | 0 W/m² | - |
| 1787809804 | 23.33° C | 38% | 1022.6 hPa | 0 mm | - | 0 W/m² | - |
| 1787809205 | 20° C | 50% | 1022.6 hPa | 0 mm | - | 0 W/m² | - |
| 1787808605 | 20° C | 50% | 1022.6 hPa | 0 mm | - | 0 W/m² | - |
| 1787808004 | 20° C | 53% | 1022.6 hPa | 0 mm | - | 0 W/m² | - |
| 1787807404 | 20° C | 54% | 1022.6 hPa | 0 mm | - | 0 W/m² | - |
| 1787806804 | 20° C | 52% | 1022.6 hPa | 0 mm | - | 0 W/m² | - |
| 1787806204 | 20.56° C | 51% | 1022.6 hPa | 0 mm | - | 0 W/m² | - |
| 1787805605 | 21.11° C | 49% | 1022.6 hPa | 0 mm | - | 0 W/m² | - |
| 1787805005 | 20.56° C | 50% | 1022.6 hPa | 0 mm | - | 0 W/m² | - |
* Rain latest hour (hover to see other rain measurements)
** Current wind speed in m/s (hover to see current wind gust speed)